aviador You're here:

KGAG Decoded Metar

GAGE in OK, USA
Report Time2017-07-22 09:53:00
UTC Time2017-07-22 10:34:45
Flight Rules vfr VFR
Wind190° at 09 kt
W.Decomp.*RWY 17: 8.8 kt HW 1.9 kt RCW
W.Rank190° ranks 3
Current wind is below 190° avg. (14.2)
Visibility9999 m
Phenomena:N/A
Clouds:N/A
Expected CloudBase > 3,600 ft AGL from Temp-Dew spread
CeilingNone
Temp26°C (ISA +15)
Dew Point17°C (58% RH)
AAT25.2°C
QNH1014 hPa
Density Alt4,190 ft
Elevation2,192 ft
Report Wrong Elevation
Raw Report
KGAG 220953Z AUTO 19009KT 10SM CLR 26/17 A2993 RMK AO2 SLP098
T02610167=

Extra information for KGAG:More info

Metar Taf Metar & Taf Last 4 Metars F.Rules Stats Wind Profile Meteogram Temp Stats Airport Information Weather charts Add Link Nearby VenuesMetar ALERT Operation Metar Decoded Social comments

AIRNAV info for KGAG